createdAt,value
2017-07-14T00:02:24.982Z,6.67
2017-07-14T00:04:52.554Z,6.90
2017-07-14T00:07:20.305Z,7.60
2017-07-14T00:09:47.883Z,8.00
2017-07-14T00:12:15.478Z,7.47
2017-07-14T00:14:43.058Z,7.67
2017-07-14T00:17:10.633Z,7.63
2017-07-14T00:19:38.216Z,8.20
2017-07-14T00:22:05.784Z,7.17
2017-07-14T00:24:33.370Z,7.97
2017-07-14T00:27:01.746Z,7.63
2017-07-14T00:29:30.364Z,7.90
2017-07-14T00:31:57.918Z,8.60
2017-07-14T00:34:25.511Z,7.40
2017-07-14T00:36:53.106Z,8.57
2017-07-14T00:39:21.484Z,7.93
2017-07-14T00:41:49.031Z,7.87
2017-07-14T00:44:16.602Z,8.20
2017-07-14T00:46:44.223Z,9.03
2017-07-14T00:49:12.095Z,8.27
2017-07-14T00:51:39.675Z,8.23
2017-07-14T00:54:07.312Z,7.60
2017-07-14T00:56:34.890Z,9.00
2017-07-14T00:59:02.546Z,8.17
2017-07-14T01:01:30.118Z,9.10
2017-07-14T01:03:57.705Z,8.70
2017-07-14T01:06:26.058Z,8.70
2017-07-14T01:08:53.672Z,8.53
2017-07-14T01:11:21.270Z,8.67
2017-07-14T01:13:48.830Z,8.13
2017-07-14T01:16:16.429Z,8.73
2017-07-14T01:18:44.033Z,8.17
2017-07-14T01:21:11.594Z,8.63
2017-07-14T01:23:39.164Z,7.97
2017-07-14T01:26:06.752Z,8.33
2017-07-14T01:28:34.622Z,8.70
2017-07-14T01:31:02.207Z,8.20
2017-07-14T01:33:29.780Z,8.20
2017-07-14T01:35:58.172Z,8.33
2017-07-14T01:38:25.949Z,8.30
2017-07-14T01:40:53.690Z,8.30
2017-07-14T01:43:21.268Z,8.20
2017-07-14T01:45:48.832Z,8.40
2017-07-14T01:48:16.391Z,8.37
2017-07-14T01:50:44.038Z,8.80
2017-07-14T01:53:11.590Z,9.33
2017-07-14T01:55:40.086Z,9.70
2017-07-14T01:58:07.671Z,9.67
2017-07-14T02:00:35.239Z,9.97
2017-07-14T02:03:02.803Z,8.80
2017-07-14T02:05:30.400Z,9.83
2017-07-14T02:07:57.969Z,9.43
2017-07-14T02:10:25.583Z,10.53
2017-07-14T02:12:53.166Z,9.40
2017-07-14T02:15:20.990Z,9.73
2017-07-14T02:17:48.696Z,9.73
2017-07-14T02:20:16.543Z,9.80
2017-07-14T02:22:44.137Z,11.10
2017-07-14T02:25:11.758Z,10.33
2017-07-14T02:27:39.315Z,9.30
2017-07-14T02:30:06.942Z,9.60
2017-07-14T02:32:35.300Z,10.70
2017-07-14T02:35:02.900Z,10.53
2017-07-14T02:37:30.467Z,10.07
2017-07-14T02:39:58.058Z,10.03
2017-07-14T02:42:25.641Z,10.63
2017-07-14T02:44:53.255Z,9.83
2017-07-14T02:47:20.826Z,10.77
2017-07-14T02:49:48.433Z,9.70
2017-07-14T02:52:15.986Z,10.73
2017-07-14T02:54:43.600Z,10.57
2017-07-14T02:57:11.177Z,10.57
2017-07-14T02:59:38.762Z,10.07
2017-07-14T03:02:06.321Z,10.67
2017-07-14T03:04:33.879Z,10.73
2017-07-14T03:07:01.454Z,9.73
2017-07-14T03:09:29.807Z,9.63
2017-07-14T03:11:57.407Z,10.20
2017-07-14T03:14:25.788Z,9.90
2017-07-14T03:16:53.372Z,10.20
2017-07-14T03:19:20.967Z,10.50
2017-07-14T03:21:48.586Z,10.43
2017-07-14T03:24:16.229Z,11.00
2017-07-14T03:26:43.793Z,9.63
2017-07-14T03:29:12.118Z,10.57
2017-07-14T03:31:39.719Z,10.00
2017-07-14T03:34:07.501Z,10.10
2017-07-14T03:36:35.839Z,10.27
2017-07-14T03:39:03.427Z,10.30
2017-07-14T03:41:30.987Z,10.13
2017-07-14T03:43:58.559Z,10.20
2017-07-14T03:46:26.919Z,10.57
2017-07-14T03:48:54.504Z,10.40
2017-07-14T03:51:22.076Z,10.10
2017-07-14T03:53:49.638Z,10.37
2017-07-14T03:56:17.239Z,10.53
2017-07-14T03:58:44.835Z,10.63
2017-07-14T04:01:12.397Z,10.70
2017-07-14T04:03:40.750Z,9.43
2017-07-14T04:06:08.701Z,10.00
2017-07-14T04:08:36.595Z,10.00
2017-07-14T04:11:04.181Z,10.30
2017-07-14T04:13:32.557Z,10.33
2017-07-14T04:16:00.931Z,9.73
2017-07-14T04:18:28.541Z,8.83
2017-07-14T04:20:56.107Z,8.33
2017-07-14T04:23:23.743Z,8.23
2017-07-14T04:25:51.310Z,8.27
2017-07-14T04:28:18.887Z,8.50
2017-07-14T04:30:46.511Z,8.60
2017-07-14T04:33:14.154Z,7.80
2017-07-14T04:35:41.745Z,7.50
2017-07-14T04:38:10.092Z,7.97
2017-07-14T04:40:37.694Z,7.70
2017-07-14T04:43:05.271Z,7.50
2017-07-14T04:45:33.095Z,7.47
2017-07-14T04:48:01.443Z,6.70
2017-07-14T04:50:29.022Z,7.10
2017-07-14T04:52:56.595Z,7.03
2017-07-14T04:55:24.967Z,7.07
2017-07-14T04:57:52.667Z,7.10
2017-07-14T05:00:20.247Z,6.40
2017-07-14T05:02:47.832Z,6.83
2017-07-14T05:05:15.423Z,6.97
2017-07-14T05:07:43.969Z,6.40
2017-07-14T05:10:11.529Z,7.27
2017-07-14T05:12:39.189Z,6.83
2017-07-14T05:15:06.751Z,6.10
2017-07-14T05:17:34.342Z,6.37
2017-07-14T05:20:01.967Z,6.20
2017-07-14T05:22:29.542Z,7.07
2017-07-14T05:24:57.119Z,6.27
2017-07-14T05:27:24.813Z,6.10
2017-07-14T05:29:53.133Z,5.90
2017-07-14T05:32:20.713Z,6.80
2017-07-14T05:34:48.332Z,6.00
2017-07-14T05:37:16.108Z,6.17
2017-07-14T05:39:43.660Z,6.47
2017-07-14T05:42:11.230Z,6.77
2017-07-14T05:44:38.840Z,6.87
2017-07-14T05:47:06.397Z,7.60
2017-07-14T05:49:34.109Z,7.13
2017-07-14T05:52:01.676Z,7.17
2017-07-14T05:54:29.247Z,9.37
2017-07-14T05:56:56.814Z,7.60
2017-07-14T05:59:24.775Z,7.70
2017-07-14T06:04:27.073Z,7.40
2017-07-14T06:06:54.675Z,6.37
2017-07-14T06:09:23.036Z,6.83
2017-07-14T06:11:50.680Z,8.37
2017-07-14T06:14:18.256Z,7.03
2017-07-14T06:16:45.830Z,9.23
2017-07-14T06:19:13.435Z,6.70
2017-07-14T06:21:41.000Z,6.40
2017-07-14T06:24:08.595Z,6.63
2017-07-14T06:26:36.190Z,7.20
2017-07-14T06:29:04.859Z,6.43
2017-07-14T06:31:32.431Z,6.50
2017-07-14T06:34:00.006Z,6.23
2017-07-14T06:36:28.366Z,5.70
2017-07-14T06:38:55.975Z,5.87
2017-07-14T06:41:24.491Z,5.87
2017-07-14T06:43:52.063Z,5.27
2017-07-14T06:46:19.623Z,5.53
2017-07-14T06:48:47.216Z,6.40
2017-07-14T06:51:14.799Z,6.13
2017-07-14T06:53:42.433Z,7.50
2017-07-14T06:56:10.799Z,7.53
2017-07-14T06:58:38.370Z,7.70
2017-07-14T07:01:06.734Z,9.23
2017-07-14T07:03:34.286Z,7.83
2017-07-14T07:06:01.871Z,7.70
2017-07-14T07:08:30.232Z,8.70
2017-07-14T07:10:57.811Z,8.47
2017-07-14T07:13:26.150Z,8.70
2017-07-14T07:15:53.749Z,9.03
2017-07-14T07:18:21.332Z,9.47
2017-07-14T07:20:48.911Z,8.97
2017-07-14T07:23:16.514Z,9.03
2017-07-14T07:25:44.118Z,9.10
2017-07-14T07:28:11.710Z,9.23
2017-07-14T07:30:39.315Z,7.83
2017-07-14T07:33:07.751Z,8.50
2017-07-14T07:35:36.647Z,8.37
2017-07-14T07:38:04.234Z,7.33
2017-07-14T07:40:31.811Z,6.90
2017-07-14T07:43:00.169Z,7.77
2017-07-14T07:45:27.759Z,7.80
2017-07-14T07:48:00.883Z,7.07
2017-07-14T07:50:28.486Z,8.00
2017-07-14T07:52:56.057Z,7.20
2017-07-14T07:55:23.631Z,7.00
2017-07-14T07:57:51.232Z,7.17
2017-07-14T08:00:18.819Z,6.93
2017-07-14T08:02:52.763Z,6.70
2017-07-14T08:05:20.348Z,6.70
2017-07-14T08:07:47.916Z,6.67
2017-07-14T08:10:15.512Z,5.73
2017-07-14T08:12:43.116Z,6.57
2017-07-14T08:15:10.772Z,6.50
2017-07-14T08:17:38.332Z,6.80
2017-07-14T08:20:06.643Z,5.90
2017-07-14T08:22:34.209Z,5.30
2017-07-14T08:25:01.835Z,6.00
2017-07-14T08:27:29.394Z,6.57
2017-07-14T08:29:56.970Z,5.80
2017-07-14T08:32:24.619Z,5.60
2017-07-14T08:34:52.960Z,5.90
2017-07-14T08:37:20.522Z,5.20
2017-07-14T08:39:48.972Z,5.60
2017-07-14T08:42:16.603Z,6.20
2017-07-14T08:44:44.970Z,5.90
2017-07-14T08:47:13.628Z,6.00
2017-07-14T08:49:41.210Z,5.90
2017-07-14T08:52:08.803Z,5.77
2017-07-14T08:54:36.378Z,6.47
2017-07-14T08:57:03.945Z,6.77
2017-07-14T08:59:31.598Z,6.10
2017-07-14T09:01:59.183Z,5.70
2017-07-14T09:04:26.804Z,5.83
2017-07-14T09:06:54.385Z,6.43
2017-07-14T09:09:21.974Z,6.90
2017-07-14T09:11:49.546Z,6.80
2017-07-14T09:14:17.318Z,6.30
2017-07-14T09:16:44.882Z,5.40
2017-07-14T09:19:12.487Z,6.60
2017-07-14T09:21:40.067Z,7.03
2017-07-14T09:24:07.680Z,6.50
2017-07-14T09:26:36.062Z,5.43
2017-07-14T09:29:04.509Z,6.90
2017-07-14T09:31:32.095Z,5.60
2017-07-14T09:33:59.692Z,6.33
2017-07-14T09:36:27.305Z,6.50
2017-07-14T09:38:54.871Z,6.50
2017-07-14T09:41:22.462Z,6.90
2017-07-14T09:43:50.153Z,6.30
2017-07-14T09:46:17.724Z,7.90
2017-07-14T09:48:45.327Z,6.00
2017-07-14T09:51:12.946Z,5.67
2017-07-14T09:53:40.566Z,6.30
2017-07-14T09:58:36.255Z,6.90
2017-07-14T10:01:03.841Z,6.07
2017-07-14T10:03:31.479Z,5.40
2017-07-14T10:05:59.091Z,5.33
2017-07-14T10:08:26.674Z,5.60
2017-07-14T10:10:54.339Z,5.10
2017-07-14T10:13:21.926Z,4.60
2017-07-14T10:15:49.524Z,5.37
2017-07-14T10:18:17.099Z,4.67
2017-07-14T10:20:44.688Z,4.60
2017-07-14T10:23:12.304Z,4.13
2017-07-14T10:25:40.674Z,5.40
2017-07-14T10:28:08.271Z,4.87
2017-07-14T10:30:35.987Z,4.60
2017-07-14T10:33:03.581Z,4.33
2017-07-14T10:35:31.198Z,4.00
2017-07-14T10:37:58.789Z,4.30
2017-07-14T10:40:26.367Z,3.90
2017-07-14T10:42:54.710Z,3.20
2017-07-14T10:45:22.335Z,4.43
2017-07-14T10:47:50.427Z,4.10
2017-07-14T10:50:18.012Z,3.63
2017-07-14T10:52:45.600Z,4.03
2017-07-14T10:55:13.955Z,3.43
2017-07-14T10:57:41.531Z,3.30
2017-07-14T11:00:09.177Z,3.73
2017-07-14T11:02:36.734Z,3.43
2017-07-14T11:05:04.316Z,3.70
2017-07-14T11:07:32.108Z,4.47
2017-07-14T11:09:59.731Z,4.63
2017-07-14T11:12:27.314Z,4.10
2017-07-14T11:14:54.881Z,4.57
2017-07-14T11:17:22.534Z,4.23
2017-07-14T11:19:50.891Z,4.53
2017-07-14T11:22:18.475Z,4.50
2017-07-14T11:24:46.843Z,4.87
2017-07-14T11:27:14.871Z,4.80
2017-07-14T11:29:42.451Z,4.50
2017-07-14T11:32:10.041Z,5.00
2017-07-14T11:34:38.426Z,4.73
2017-07-14T11:37:06.781Z,5.13
2017-07-14T11:39:34.376Z,4.47
2017-07-14T11:42:02.770Z,4.50
2017-07-14T11:44:30.367Z,4.83
2017-07-14T11:46:57.972Z,4.67
2017-07-14T11:49:26.349Z,4.30
2017-07-14T11:51:54.737Z,4.63
2017-07-14T11:54:23.099Z,4.13
2017-07-14T11:56:51.023Z,4.67
2017-07-14T11:59:18.698Z,4.00
2017-07-14T12:01:46.285Z,3.80
2017-07-14T12:04:13.867Z,5.00
2017-07-14T12:06:42.236Z,4.47
2017-07-14T12:09:09.819Z,4.97
2017-07-14T12:11:37.459Z,4.67
2017-07-14T12:14:05.054Z,4.00
2017-07-14T12:16:32.667Z,4.00
2017-07-14T12:19:00.302Z,3.80
2017-07-14T12:21:27.896Z,3.30
2017-07-14T12:23:55.529Z,3.73
2017-07-14T12:26:23.352Z,3.60
2017-07-14T12:28:50.946Z,3.80
2017-07-14T12:31:18.527Z,4.40
2017-07-14T12:33:46.200Z,4.83
2017-07-14T12:36:13.771Z,4.20
2017-07-14T12:38:41.380Z,4.20
2017-07-14T12:41:09.054Z,4.20
2017-07-14T12:43:36.683Z,3.53
2017-07-14T12:46:05.280Z,4.93
2017-07-14T12:48:32.883Z,5.77
2017-07-14T12:51:00.499Z,5.53
2017-07-14T12:53:28.148Z,6.10
2017-07-14T12:55:55.755Z,5.60
2017-07-14T12:58:23.348Z,5.47
2017-07-14T13:00:50.938Z,5.70
2017-07-14T13:03:18.535Z,5.23
2017-07-14T13:05:46.209Z,5.50
2017-07-14T13:08:13.787Z,5.10
2017-07-14T13:10:41.381Z,5.07
2017-07-14T13:13:09.771Z,4.60
2017-07-14T13:15:38.159Z,5.90
2017-07-14T13:18:05.743Z,5.77
2017-07-14T13:20:34.006Z,6.40
2017-07-14T13:23:01.577Z,4.90
2017-07-14T13:25:29.175Z,5.80
2017-07-14T13:27:56.847Z,5.23
2017-07-14T13:30:24.410Z,5.40
2017-07-14T13:32:52.239Z,5.33
2017-07-14T13:35:19.811Z,5.10
2017-07-14T13:37:47.398Z,4.70
2017-07-14T13:40:14.967Z,5.50
2017-07-14T13:42:42.619Z,6.17
2017-07-14T13:45:11.687Z,5.93
2017-07-14T13:47:39.344Z,5.93
2017-07-14T13:50:06.932Z,5.80
2017-07-14T13:52:34.496Z,6.00
2017-07-14T13:55:02.122Z,6.17
2017-07-14T13:57:29.704Z,6.47
2017-07-14T13:59:58.497Z,7.10
2017-07-14T14:02:26.155Z,7.60
2017-07-14T14:04:53.752Z,9.20
2017-07-14T14:07:22.330Z,11.63
2017-07-14T14:09:49.956Z,12.10
2017-07-14T14:12:18.443Z,12.40
2017-07-14T14:14:46.091Z,12.47
2017-07-14T14:17:13.695Z,13.50
2017-07-14T14:19:41.392Z,13.80
2017-07-14T14:22:09.020Z,13.20
2017-07-14T14:24:36.623Z,17.40
2017-07-14T14:27:04.348Z,16.17
2017-07-14T14:29:32.807Z,13.67
2017-07-14T14:32:00.404Z,14.20
2017-07-14T14:34:28.391Z,14.27
2017-07-14T14:36:55.999Z,14.80
2017-07-14T14:39:23.838Z,13.80
2017-07-14T14:41:51.412Z,15.33
2017-07-14T14:44:19.008Z,16.10
2017-07-14T14:46:46.627Z,15.03
2017-07-14T14:49:14.396Z,14.67
2017-07-14T14:51:41.996Z,15.40
2017-07-14T14:54:10.474Z,14.97
2017-07-14T14:56:38.043Z,14.40
2017-07-14T14:59:06.457Z,13.97
2017-07-14T15:01:34.083Z,14.57
2017-07-14T15:04:01.725Z,14.10
2017-07-14T15:06:29.386Z,12.97
2017-07-14T15:08:57.007Z,11.50
2017-07-14T15:11:24.602Z,9.37
2017-07-14T15:13:52.192Z,8.07
2017-07-14T15:16:19.789Z,6.40
2017-07-14T15:18:47.360Z,5.83
2017-07-14T15:21:14.928Z,6.50
2017-07-14T15:23:42.593Z,6.33
2017-07-14T15:26:10.194Z,6.20
2017-07-14T15:28:37.811Z,6.43
2017-07-14T15:31:05.462Z,6.33
2017-07-14T15:33:33.066Z,7.43
2017-07-14T15:36:00.656Z,8.07
2017-07-14T15:38:28.989Z,6.90
2017-07-14T15:40:56.590Z,8.97
2017-07-14T15:43:25.106Z,8.40
2017-07-14T15:45:52.698Z,8.80
2017-07-14T15:48:24.093Z,9.60
2017-07-14T15:50:52.448Z,9.87
2017-07-14T15:53:21.179Z,9.70
2017-07-14T15:55:48.767Z,9.90
2017-07-14T15:58:16.436Z,10.30
2017-07-14T16:00:44.083Z,10.67
2017-07-14T16:03:11.677Z,11.57
2017-07-14T16:05:39.277Z,11.50
2017-07-14T16:08:07.662Z,12.53
2017-07-14T16:10:35.246Z,13.37
2017-07-14T16:13:02.848Z,13.50
2017-07-14T16:15:30.497Z,13.37
2017-07-14T16:17:58.101Z,13.03
2017-07-14T16:20:26.470Z,13.40
2017-07-14T16:22:54.829Z,11.80
2017-07-14T16:25:22.454Z,11.77
2017-07-14T16:27:50.048Z,8.50
2017-07-14T16:30:17.656Z,5.80
2017-07-14T16:32:45.215Z,5.77
2017-07-14T16:35:13.583Z,5.73
2017-07-14T16:37:41.927Z,6.53
2017-07-14T16:40:09.523Z,6.00
2017-07-14T16:42:37.914Z,6.03
2017-07-14T16:45:05.498Z,6.77
2017-07-14T16:47:33.567Z,6.27
2017-07-14T16:50:01.220Z,7.47
2017-07-14T16:52:28.810Z,6.73
2017-07-14T16:54:56.395Z,5.93
2017-07-14T16:57:24.094Z,6.93
2017-07-14T16:59:51.712Z,6.43
2017-07-14T17:02:19.306Z,6.40
2017-07-14T17:04:47.641Z,6.60
2017-07-14T17:07:15.216Z,6.63
2017-07-14T17:09:42.837Z,6.10
2017-07-14T17:12:10.423Z,6.30
2017-07-14T17:14:38.082Z,5.30
2017-07-14T17:17:05.678Z,5.03
2017-07-14T17:19:33.246Z,4.53
2017-07-14T17:22:00.887Z,3.43
2017-07-14T17:24:28.480Z,2.93
2017-07-14T17:26:57.116Z,3.30
2017-07-14T17:29:24.718Z,3.20
2017-07-14T17:31:53.081Z,3.40
2017-07-14T17:34:20.666Z,3.27
2017-07-14T17:36:48.298Z,3.87
2017-07-14T17:39:15.883Z,3.83
2017-07-14T17:41:44.236Z,4.10
2017-07-14T17:44:11.827Z,4.73
2017-07-14T17:46:40.275Z,5.27
2017-07-14T17:49:07.855Z,4.90
2017-07-14T17:51:35.516Z,5.07
2017-07-14T17:54:03.111Z,5.40
2017-07-14T17:56:31.429Z,5.90
2017-07-14T17:58:59.035Z,5.50
2017-07-14T18:01:27.406Z,6.53
2017-07-14T18:03:55.784Z,6.27
2017-07-14T18:06:23.379Z,5.90
2017-07-14T18:08:50.973Z,5.80
2017-07-14T18:11:18.573Z,6.13
2017-07-14T18:13:46.147Z,6.03
2017-07-14T18:16:14.519Z,5.87
2017-07-14T18:18:42.919Z,5.83
2017-07-14T18:21:10.548Z,6.47
2017-07-14T18:23:38.167Z,6.80
2017-07-14T18:26:05.751Z,7.37
2017-07-14T18:28:33.333Z,6.37
2017-07-14T18:31:00.964Z,5.93
2017-07-14T18:33:28.577Z,6.20
2017-07-14T18:48:56.239Z,4.83
2017-07-14T18:51:23.858Z,4.40
2017-07-14T18:53:51.492Z,4.80
2017-07-14T18:56:19.131Z,3.90
2017-07-14T18:58:46.707Z,4.57
2017-07-14T19:01:17.319Z,4.23
2017-07-14T19:03:45.647Z,3.90
2017-07-14T19:06:13.259Z,4.10
2017-07-14T19:08:41.067Z,4.13
2017-07-14T19:11:08.678Z,3.87
2017-07-14T19:13:36.284Z,3.30
2017-07-14T19:16:03.920Z,2.93
2017-07-14T19:18:31.545Z,2.90
2017-07-14T19:20:59.175Z,3.10
2017-07-14T19:23:26.786Z,2.53
2017-07-14T19:25:54.473Z,3.07
2017-07-14T19:28:23.283Z,2.80
2017-07-14T19:30:50.890Z,2.57
2017-07-14T19:33:18.740Z,2.73
2017-07-14T19:35:46.432Z,2.60
2017-07-14T19:38:14.035Z,2.70
2017-07-14T19:40:41.631Z,3.20
2017-07-14T19:43:09.219Z,2.90
2017-07-14T19:45:37.600Z,2.93
2017-07-14T19:48:05.939Z,3.50
2017-07-14T19:50:33.536Z,3.57
2017-07-14T19:53:01.903Z,3.30
2017-07-14T19:55:30.239Z,3.23
2017-07-14T19:57:57.893Z,3.60
2017-07-14T20:00:25.498Z,3.70
2017-07-14T20:02:53.096Z,3.87
2017-07-14T20:05:20.671Z,2.97
2017-07-14T20:07:48.411Z,3.57
2017-07-14T20:10:16.006Z,3.30
2017-07-14T20:12:43.590Z,3.47
2017-07-14T20:15:11.286Z,3.50
2017-07-14T20:17:38.928Z,3.73
2017-07-14T20:20:06.523Z,3.90
2017-07-14T20:22:34.887Z,4.13
2017-07-14T20:25:02.600Z,3.37
2017-07-14T20:27:30.185Z,3.87
2017-07-14T20:29:57.725Z,4.37
2017-07-14T20:32:25.301Z,4.23
2017-07-14T20:34:52.852Z,4.23
2017-07-14T20:37:20.427Z,4.17
2017-07-14T20:39:48.054Z,3.83
2017-07-14T20:42:15.730Z,3.63
2017-07-14T20:44:43.359Z,4.37
2017-07-14T20:47:11.748Z,5.00
2017-07-14T20:49:39.345Z,3.77
2017-07-14T20:52:06.917Z,3.43
2017-07-14T20:54:34.506Z,3.53
2017-07-14T20:57:02.917Z,3.50
2017-07-14T20:59:30.527Z,3.23
2017-07-14T21:01:58.116Z,3.70
2017-07-14T21:04:26.493Z,3.00
2017-07-14T21:06:54.100Z,2.33
2017-07-14T21:09:21.816Z,2.50
2017-07-14T21:11:50.178Z,2.40
2017-07-14T21:14:17.747Z,2.67
2017-07-14T21:16:45.344Z,2.10
2017-07-14T21:19:12.949Z,2.00
2017-07-14T21:21:40.543Z,2.23
2017-07-14T21:24:08.888Z,2.30
2017-07-14T21:26:36.478Z,2.33
2017-07-14T21:29:04.210Z,2.57
2017-07-14T21:31:31.788Z,2.20
2017-07-14T21:33:59.373Z,2.10
2017-07-14T21:36:27.723Z,2.07
2017-07-14T21:38:55.314Z,2.20
2017-07-14T21:41:23.688Z,2.40
2017-07-14T21:43:52.092Z,2.40
2017-07-14T21:46:19.672Z,2.87
2017-07-14T21:48:47.254Z,2.70
2017-07-14T21:51:14.842Z,2.40
2017-07-14T21:53:42.404Z,2.87
2017-07-14T21:56:09.983Z,2.90
2017-07-14T21:58:38.403Z,3.10
2017-07-14T22:01:05.996Z,3.23
2017-07-14T22:03:33.567Z,3.63
2017-07-14T22:06:01.163Z,3.20
2017-07-14T22:08:28.717Z,2.80
2017-07-14T22:10:57.030Z,2.97
2017-07-14T22:13:24.620Z,3.00
2017-07-14T22:15:52.208Z,2.67
2017-07-14T22:18:19.783Z,2.73
2017-07-14T22:20:47.400Z,2.63
2017-07-14T22:23:14.958Z,2.73
2017-07-14T22:25:42.565Z,3.07
2017-07-14T22:28:10.164Z,2.70
2017-07-14T22:30:37.739Z,3.00
2017-07-14T22:33:05.323Z,3.20
2017-07-14T22:35:33.657Z,3.17
2017-07-14T22:38:01.288Z,3.27
2017-07-14T22:40:29.610Z,3.40
2017-07-14T22:42:57.231Z,3.50
2017-07-14T22:45:24.840Z,3.90
2017-07-14T22:47:52.440Z,4.20
2017-07-14T22:50:20.783Z,3.27
2017-07-14T22:52:48.386Z,3.30
2017-07-14T22:55:15.981Z,3.90
2017-07-14T22:57:43.624Z,3.30
2017-07-14T23:00:11.218Z,3.27
2017-07-14T23:02:38.812Z,3.40
2017-07-14T23:05:07.159Z,3.13
2017-07-14T23:07:34.755Z,3.00
2017-07-14T23:10:02.328Z,3.30
2017-07-14T23:12:30.663Z,3.43
2017-07-14T23:14:58.250Z,3.23
2017-07-14T23:17:25.843Z,3.70
2017-07-14T23:19:53.422Z,3.70
2017-07-14T23:22:21.018Z,3.53
2017-07-14T23:24:48.589Z,3.40
2017-07-14T23:27:16.174Z,3.50
2017-07-14T23:29:43.771Z,3.20
2017-07-14T23:32:11.335Z,3.20
2017-07-14T23:34:38.906Z,2.90
2017-07-14T23:37:06.603Z,3.10
2017-07-14T23:39:34.949Z,3.17
2017-07-14T23:42:02.552Z,3.77
2017-07-14T23:44:30.906Z,2.70
2017-07-14T23:46:58.642Z,3.47
2017-07-14T23:49:26.243Z,2.83
2017-07-14T23:51:53.796Z,3.63
2017-07-14T23:54:21.349Z,3.97
2017-07-14T23:56:48.951Z,3.80
2017-07-14T23:59:16.575Z,4.27
